Time;durP1;ratioP1;P1;durP2;ratioP2;P2;SDS_P1;SDS_P2;PMS_P1;PMS_P2;Temp;Humidity;BMP_temperature;BMP_pressure;BME280_temperature;BME280_humidity;BME280_pressure;Samples;Min_cycle;Max_cycle;Signal;HPM_P1;HPM_P2
2023/08/10 00:00:15;;;;;;;8.90;4.55;;;15.00;54.00;;;;;;5052952;28;20378;-72
2023/08/10 00:02:41;;;;;;;8.13;3.90;;;14.90;55.80;;;;;;5053108;28;20834;-71
2023/08/10 00:05:07;;;;;;;7.40;4.28;;;14.70;58.30;;;;;;5055218;28;20377;-71
2023/08/10 00:07:36;;;;;;;7.90;4.57;;;14.50;61.70;;;;;;5061925;28;20495;-70
2023/08/10 00:10:08;;;;;;;8.80;4.32;;;14.40;65.00;;;;;;5051752;28;20473;-70
2023/08/10 00:12:34;;;;;;;11.73;5.00;;;14.30;66.90;;;;;;5052229;28;20416;-73
2023/08/10 00:15:00;;;;;;;12.75;4.60;;;14.20;68.90;;;;;;5054774;28;20397;-70
2023/08/10 00:17:25;;;;;;;9.25;4.35;;;14.10;70.80;;;;;;5061574;28;20394;-72
2023/08/10 00:19:51;;;;;;;8.00;4.30;;;14.20;71.90;;;;;;5064811;28;20393;-73
2023/08/10 00:22:16;;;;;;;9.23;5.13;;;14.30;71.60;;;;;;5056142;28;20383;-72
2023/08/10 00:24:42;;;;;;;9.75;3.70;;;14.40;72.10;;;;;;5064326;28;20444;-72
2023/08/10 00:27:08;;;;;;;9.35;4.20;;;14.40;71.20;;;;;;5064106;28;20382;-72
2023/08/10 00:29:33;;;;;;;11.93;4.90;;;14.40;68.50;;;;;;5064540;28;20377;-70
2023/08/10 00:31:59;;;;;;;7.77;4.63;;;14.60;66.40;;;;;;5064642;28;20723;-70
2023/08/10 00:34:25;;;;;;;8.48;3.83;;;15.00;57.20;;;;;;5064320;28;20723;-70
2023/08/10 00:36:51;;;;;;;10.80;4.07;;;15.30;51.10;;;;;;5046335;28;20409;-70
2023/08/10 00:39:19;;;;;;;10.37;3.63;;;15.40;49.90;;;;;;5062139;28;20401;-72
2023/08/10 00:41:45;;;;;;;6.38;3.30;;;15.60;48.70;;;;;;5052851;28;20788;-71
2023/08/10 00:44:10;;;;;;;8.60;3.83;;;15.60;48.20;;;;;;5059855;28;20385;-72
2023/08/10 00:46:36;;;;;;;8.30;4.13;;;15.60;48.90;;;;;;5038954;28;20386;-71
2023/08/10 00:49:03;;;;;;;7.40;3.50;;;15.40;50.40;;;;;;5057341;28;20389;-69
2023/08/10 00:51:29;;;;;;;5.85;3.28;;;15.30;51.90;;;;;;5054640;28;20397;-73
2023/08/10 00:53:54;;;;;;;7.97;4.10;;;15.10;53.60;;;;;;5069241;28;20397;-71
2023/08/10 00:56:20;;;;;;;8.47;3.30;;;14.90;55.20;;;;;;5054252;28;20447;-71
2023/08/10 00:58:47;;;;;;;5.93;3.50;;;14.90;56.40;;;;;;5054272;28;20795;-71
2023/08/10 01:01:13;;;;;;;5.18;3.92;;;14.90;57.10;;;;;;5053295;28;20385;-72
2023/08/10 01:03:38;;;;;;;6.68;3.30;;;15.20;53.30;;;;;;5052659;28;20409;-73
2023/08/10 01:06:30;;;;;;;7.43;3.35;;;15.30;50.50;;;;;;5051409;28;20414;-72
2023/08/10 01:09:24;;;;;;;8.43;3.38;;;15.60;47.50;;;;;;5051303;28;20428;-72
2023/08/10 01:12:09;;;;;;;11.00;3.50;;;15.60;46.20;;;;;;5051496;28;20432;-72
2023/08/10 01:14:42;;;;;;;7.93;4.07;;;15.50;47.40;;;;;;5051147;28;20393;-72
2023/08/10 01:17:19;;;;;;;5.60;3.58;;;15.30;48.90;;;;;;5051142;28;20412;-71
2023/08/10 01:19:48;;;;;;;11.60;3.72;;;15.30;48.60;;;;;;5034784;22;20531;-73
2023/08/10 01:22:18;;;;;;;6.30;3.45;;;15.20;48.50;;;;;;5011273;28;20864;-73
2023/08/10 01:24:46;;;;;;;7.45;3.00;;;15.10;51.00;;;;;;5011597;28;20385;-73
2023/08/10 01:27:13;;;;;;;7.38;3.40;;;15.00;52.30;;;;;;5011614;28;20381;-73
2023/08/10 01:29:40;;;;;;;9.00;3.20;;;14.90;52.70;;;;;;5011418;28;20928;-73
2023/08/10 01:32:12;;;;;;;6.90;3.30;;;15.00;52.70;;;;;;5011557;28;20384;-72
2023/08/10 01:34:38;;;;;;;9.40;3.45;;;14.90;52.80;;;;;;5011613;28;20384;-72
2023/08/10 01:37:04;;;;;;;4.05;3.00;;;15.10;52.20;;;;;;5011691;28;20381;-72
2023/08/10 01:39:32;;;;;;;4.22;3.00;;;15.00;53.20;;;;;;5011974;28;20420;-74
2023/08/10 01:41:57;;;;;;;6.38;3.70;;;15.00;54.20;;;;;;5010333;28;20408;-73
2023/08/10 01:44:23;;;;;;;8.75;3.30;;;15.00;54.30;;;;;;5011474;28;20885;-72
2023/08/10 01:46:52;;;;;;;7.45;3.65;;;15.00;54.00;;;;;;5012245;28;20464;-72
2023/08/10 01:49:22;;;;;;;6.88;3.47;;;15.00;54.10;;;;;;5014085;28;20519;-73
2023/08/10 01:51:49;;;;;;;6.18;3.35;;;15.00;53.90;;;;;;5013991;28;20397;-73
2023/08/10 01:54:15;;;;;;;7.25;3.40;;;15.00;54.20;;;;;;5012886;28;20404;-73
2023/08/10 01:56:42;;;;;;;8.38;3.88;;;15.00;53.90;;;;;;5013271;28;20399;-72
2023/08/10 01:59:08;;;;;;;9.15;4.30;;;15.00;53.30;;;;;;5010763;28;20408;-74
2023/08/10 02:01:33;;;;;;;5.50;3.50;;;15.30;51.00;;;;;;5010749;28;20438;-72
2023/08/10 02:03:59;;;;;;;7.10;3.73;;;15.30;51.70;;;;;;5010904;28;20388;-72
2023/08/10 02:06:24;;;;;;;9.80;3.80;;;15.20;51.40;;;;;;5011091;28;20384;-72
2023/08/10 02:08:50;;;;;;;10.73;4.20;;;15.10;52.20;;;;;;5011215;28;20476;-72
2023/08/10 02:11:15;;;;;;;8.60;3.90;;;15.10;52.80;;;;;;5014632;28;20384;-73
2023/08/10 02:13:41;;;;;;;9.75;4.28;;;15.20;53.60;;;;;;5015138;28;20389;-73
2023/08/10 02:16:07;;;;;;;6.70;4.70;;;15.60;50.80;;;;;;5015148;28;20385;-73
2023/08/10 02:18:33;;;;;;;9.23;4.70;;;15.60;50.90;;;;;;5016688;28;20419;-73
2023/08/10 02:21:00;;;;;;;8.23;4.37;;;15.60;50.90;;;;;;5015274;28;20388;-72
2023/08/10 02:23:29;;;;;;;7.40;4.10;;;15.60;50.80;;;;;;5015309;28;20892;-73
2023/08/10 02:25:54;;;;;;;7.05;4.30;;;15.40;53.30;;;;;;5014479;28;20388;-73
2023/08/10 02:28:20;;;;;;;5.63;3.90;;;15.30;53.50;;;;;;5014151;28;20385;-73
2023/08/10 02:30:45;;;;;;;9.80;4.30;;;15.50;51.10;;;;;;5011339;28;20468;-73
2023/08/10 02:33:11;;;;;;;9.20;4.00;;;15.60;49.60;;;;;;5010749;28;20420;-73
2023/08/10 02:35:36;;;;;;;10.80;4.40;;;15.60;48.70;;;;;;5010784;28;20492;-72
2023/08/10 02:38:02;;;;;;;12.15;4.22;;;15.40;47.70;;;;;;5010459;28;20436;-72
2023/08/10 02:40:27;;;;;;;11.70;4.40;;;15.40;48.60;;;;;;5010686;28;20385;-72
2023/08/10 02:42:53;;;;;;;10.40;4.20;;;15.30;48.40;;;;;;5010588;28;20385;-72
2023/08/10 02:45:18;;;;;;;8.13;4.30;;;15.30;48.40;;;;;;5013522;28;20381;-72
2023/08/10 02:47:44;;;;;;;8.07;5.40;;;15.20;48.80;;;;;;5020749;28;20403;-72
2023/08/10 02:50:11;;;;;;;7.10;4.47;;;15.10;49.20;;;;;;5037471;28;20766;-73
2023/08/10 02:52:37;;;;;;;9.25;4.40;;;15.00;49.50;;;;;;5017665;28;20396;-72
2023/08/10 02:55:03;;;;;;;9.93;5.28;;;15.00;49.80;;;;;;5014166;28;20854;-72
2023/08/10 02:57:30;;;;;;;9.43;5.15;;;14.90;51.20;;;;;;5013919;28;20416;-72
2023/08/10 02:59:55;;;;;;;8.07;4.00;;;14.80;52.60;;;;;;5016606;28;20395;-73
2023/08/10 03:02:21;;;;;;;6.95;4.60;;;14.40;55.50;;;;;;5016314;28;20452;-73
2023/08/10 03:04:47;;;;;;;8.63;4.40;;;14.50;56.20;;;;;;5019271;28;20381;-73
2023/08/10 03:07:13;;;;;;;9.30;4.97;;;14.50;56.00;;;;;;5023886;28;20727;-73
2023/08/10 03:09:39;;;;;;;10.32;4.35;;;14.50;56.20;;;;;;5024515;28;20389;-73
2023/08/10 03:12:04;;;;;;;8.90;4.68;;;14.30;57.20;;;;;;5023081;28;20403;-73
2023/08/10 03:14:30;;;;;;;11.87;4.90;;;14.20;59.70;;;;;;5023950;28;20457;-73
2023/08/10 03:16:56;;;;;;;8.88;4.80;;;14.30;58.60;;;;;;5017743;28;20825;-73
2023/08/10 03:19:21;;;;;;;10.50;5.63;;;14.20;59.80;;;;;;5015146;28;20439;-73
2023/08/10 03:21:47;;;;;;;10.60;5.17;;;14.40;59.50;;;;;;5014684;28;20387;-72
2023/08/10 03:24:12;;;;;;;11.83;4.90;;;14.40;59.30;;;;;;5013964;28;20463;-72
2023/08/10 03:26:38;;;;;;;6.20;3.70;;;14.40;59.50;;;;;;5014534;28;20857;-74
2023/08/10 03:29:04;;;;;;;12.00;5.13;;;14.20;61.20;;;;;;5013994;28;20476;-74
2023/08/10 03:31:30;;;;;;;7.03;4.45;;;14.20;61.50;;;;;;5014350;28;20389;-74
2023/08/10 03:33:55;;;;;;;10.70;4.80;;;14.10;62.90;;;;;;5014871;28;20433;-73
2023/08/10 03:36:21;;;;;;;6.95;4.20;;;14.10;63.60;;;;;;5014753;28;20385;-73
2023/08/10 03:38:47;;;;;;;13.25;4.90;;;14.10;63.60;;;;;;5022082;28;20777;-73
2023/08/10 03:41:12;;;;;;;7.60;4.43;;;14.20;62.20;;;;;;5017929;28;20392;-73
2023/08/10 03:43:38;;;;;;;10.00;5.00;;;14.40;60.80;;;;;;5013813;28;20818;-73
2023/08/10 03:46:05;;;;;;;9.13;4.40;;;14.40;60.40;;;;;;5013702;28;20474;-73
2023/08/10 03:48:31;;;;;;;10.20;5.45;;;14.40;60.90;;;;;;5013259;28;20898;-73
2023/08/10 03:50:56;;;;;;;10.35;5.15;;;14.40;60.90;;;;;;5013560;28;20476;-72
2023/08/10 03:53:22;;;;;;;12.30;4.57;;;14.30;62.80;;;;;;5012813;28;20389;-73
2023/08/10 03:55:47;;;;;;;9.23;5.10;;;14.20;64.30;;;;;;5012623;28;20416;-72
2023/08/10 03:58:13;;;;;;;11.73;4.97;;;14.20;65.50;;;;;;5010793;28;20420;-72
2023/08/10 04:00:44;;;;;;;6.75;4.32;;;14.20;66.40;;;;;;5012621;28;20397;-73
2023/08/10 04:03:11;;;;;;;8.82;4.60;;;14.30;67.00;;;;;;5012633;28;20384;-72
2023/08/10 04:05:37;;;;;;;10.90;4.65;;;14.20;67.50;;;;;;5012788;28;20384;-73
2023/08/10 04:08:03;;;;;;;9.90;5.20;;;14.20;67.90;;;;;;5012603;28;20453;-73
2023/08/10 04:10:29;;;;;;;12.17;4.83;;;14.20;68.20;;;;;;5012839;28;20392;-73
2023/08/10 04:12:55;;;;;;;9.20;4.82;;;14.20;68.90;;;;;;5012604;28;20380;-72
2023/08/10 04:15:20;;;;;;;10.23;5.10;;;14.20;68.90;;;;;;5011206;28;20928;-73
2023/08/10 04:17:46;;;;;;;12.43;5.57;;;14.20;68.80;;;;;;5012465;28;20917;-73
2023/08/10 04:20:13;;;;;;;10.33;5.80;;;14.30;67.70;;;;;;5012527;28;20421;-73
2023/08/10 04:22:40;;;;;;;12.90;6.00;;;14.40;62.80;;;;;;5013068;28;20906;-73
2023/08/10 04:25:07;;;;;;;13.20;5.90;;;14.50;60.40;;;;;;5011186;28;20389;-72
2023/08/10 04:27:33;;;;;;;11.40;5.47;;;14.50;59.20;;;;;;5012057;28;20459;-73
2023/08/10 04:29:58;;;;;;;18.92;5.53;;;14.60;57.00;;;;;;5013110;28;20392;-73
2023/08/10 04:32:24;;;;;;;9.95;5.03;;;14.70;57.20;;;;;;5012199;28;20392;-73
2023/08/10 04:34:51;;;;;;;10.25;5.63;;;14.90;56.30;;;;;;5012158;28;20443;-73
2023/08/10 04:37:17;;;;;;;9.57;5.50;;;15.20;52.50;;;;;;5012034;28;20392;-73
2023/08/10 04:39:43;;;;;;;12.83;5.43;;;15.30;52.20;;;;;;5012169;28;20393;-73
2023/08/10 04:42:09;;;;;;;12.25;5.55;;;15.40;49.90;;;;;;5011729;28;20742;-74
2023/08/10 04:44:34;;;;;;;11.07;5.60;;;15.50;50.00;;;;;;5012085;28;20373;-74
2023/08/10 04:47:00;;;;;;;9.33;5.27;;;15.50;49.80;;;;;;5011917;28;20381;-74
2023/08/10 04:49:27;;;;;;;11.43;5.30;;;15.60;48.90;;;;;;5012105;28;20471;-74
2023/08/10 04:51:53;;;;;;;7.97;4.38;;;15.60;47.30;;;;;;5012281;28;20459;-73
2023/08/10 04:54:18;;;;;;;12.32;5.38;;;15.70;46.80;;;;;;5012285;28;20408;-75
2023/08/10 04:56:44;;;;;;;9.93;5.20;;;15.70;45.90;;;;;;5012450;28;20385;-74
2023/08/10 04:59:09;;;;;;;13.20;4.60;;;15.70;46.40;;;;;;5012042;28;20459;-73
2023/08/10 05:01:35;;;;;;;8.30;4.30;;;15.80;44.80;;;;;;5011516;28;20392;-74
2023/08/10 05:04:01;;;;;;;9.93;5.00;;;15.80;43.60;;;;;;5011850;28;20522;-72
2023/08/10 05:06:26;;;;;;;8.70;4.90;;;15.90;43.30;;;;;;5012308;28;20392;-74
2023/08/10 05:08:52;;;;;;;13.83;5.40;;;15.80;43.60;;;;;;5019224;28;20388;-73
2023/08/10 05:11:17;;;;;;;10.30;5.40;;;15.70;44.20;;;;;;5022841;28;20460;-73
2023/08/10 05:13:43;;;;;;;10.80;6.13;;;15.70;44.50;;;;;;5024068;28;20384;-73
2023/08/10 05:16:08;;;;;;;11.13;5.50;;;15.70;45.10;;;;;;5013722;28;20385;-74
2023/08/10 05:18:34;;;;;;;9.27;4.80;;;15.70;45.30;;;;;;5012151;28;20470;-72
2023/08/10 05:21:00;;;;;;;12.33;5.27;;;15.90;42.90;;;;;;5011319;28;20389;-72
2023/08/10 05:23:26;;;;;;;11.90;5.43;;;15.90;42.20;;;;;;5011226;28;20385;-72
2023/08/10 05:25:51;;;;;;;12.80;5.47;;;15.70;43.10;;;;;;5011641;28;20447;-73
2023/08/10 05:28:17;;;;;;;7.50;5.28;;;15.50;44.70;;;;;;5011086;28;20410;-74
2023/08/10 05:30:43;;;;;;;11.98;5.15;;;15.30;46.50;;;;;;5012100;28;20381;-74
2023/08/10 05:33:09;;;;;;;10.63;5.68;;;15.20;47.90;;;;;;5011187;28;20397;-74
2023/08/10 05:35:34;;;;;;;9.80;5.63;;;15.40;47.70;;;;;;5010063;28;20393;-73
2023/08/10 05:38:00;;;;;;;9.55;5.40;;;15.60;46.50;;;;;;5010951;28;20413;-72
2023/08/10 05:40:25;;;;;;;8.10;5.37;;;15.50;46.80;;;;;;5010935;28;20757;-74
2023/08/10 05:42:51;;;;;;;8.80;6.10;;;15.80;45.00;;;;;;5011141;28;20471;-74
2023/08/10 05:45:19;;;;;;;10.70;5.83;;;15.90;44.60;;;;;;5009905;28;20392;-74
2023/08/10 05:47:45;;;;;;;13.95;6.50;;;15.80;44.80;;;;;;5013805;28;20388;-74
2023/08/10 05:50:14;;;;;;;13.52;6.47;;;16.00;43.40;;;;;;5011743;28;20385;-74
2023/08/10 05:52:41;;;;;;;14.20;6.18;;;16.10;42.60;;;;;;5009605;28;20392;-73
2023/08/10 05:55:07;;;;;;;14.88;6.10;;;16.20;42.10;;;;;;5009765;28;20480;-73
2023/08/10 05:57:32;;;;;;;10.13;6.10;;;16.00;42.60;;;;;;5011447;28;20395;-73
2023/08/10 05:59:58;;;;;;;11.77;6.30;;;16.10;43.50;;;;;;5011383;28;20384;-74
2023/08/10 06:02:23;;;;;;;14.27;7.20;;;16.20;41.50;;;;;;5010963;28;20419;-73
2023/08/10 06:04:49;;;;;;;15.45;6.82;;;16.20;42.30;;;;;;5011172;28;20447;-73
2023/08/10 06:07:15;;;;;;;14.60;6.35;;;16.30;41.90;;;;;;5010830;28;20380;-72
2023/08/10 06:09:41;;;;;;;15.52;6.13;;;16.40;41.30;;;;;;5010809;28;20759;-73
2023/08/10 06:12:07;;;;;;;16.42;7.68;;;16.40;41.90;;;;;;5011043;28;20400;-73
2023/08/10 06:14:33;;;;;;;14.45;7.13;;;16.40;41.20;;;;;;5011077;28;20388;-73
2023/08/10 06:16:59;;;;;;;16.65;7.55;;;16.30;41.70;;;;;;5011223;28;20396;-72
2023/08/10 06:19:24;;;;;;;14.20;7.47;;;16.50;41.10;;;;;;5009271;28;20922;-72
2023/08/10 06:21:52;;;;;;;15.05;7.50;;;16.30;41.10;;;;;;5014388;28;20852;-73
2023/08/10 06:24:18;;;;;;;15.25;7.97;;;16.20;42.60;;;;;;5007290;28;20401;-73
2023/08/10 06:26:44;;;;;;;15.90;7.90;;;16.40;42.50;;;;;;5004741;28;20404;-76
2023/08/10 06:29:09;;;;;;;17.27;7.78;;;16.30;42.40;;;;;;4996179;28;20544;-73
2023/08/10 06:31:35;;;;;;;15.00;7.77;;;16.20;42.50;;;;;;4999934;28;20766;-73
2023/08/10 06:34:02;;;;;;;16.60;8.00;;;16.30;41.70;;;;;;5016436;28;20482;-73
2023/08/10 06:36:28;;;;;;;13.68;8.30;;;16.40;41.30;;;;;;5011916;28;20429;-73
2023/08/10 06:38:54;;;;;;;16.42;8.98;;;16.70;40.40;;;;;;5013789;28;20491;-71
2023/08/10 06:41:19;;;;;;;22.63;10.15;;;16.60;40.90;;;;;;4997746;28;20408;-72
2023/08/10 06:43:45;;;;;;;24.33;11.13;;;16.60;40.60;;;;;;5000551;28;20398;-73
2023/08/10 06:46:10;;;;;;;20.67;10.40;;;16.60;40.90;;;;;;5001785;28;20703;-73
2023/08/10 06:48:36;;;;;;;22.05;10.60;;;16.60;40.60;;;;;;5008653;28;20432;-73
2023/08/10 06:51:01;;;;;;;15.00;8.73;;;16.90;40.00;;;;;;5016076;28;20457;-72
2023/08/10 06:53:27;;;;;;;20.67;7.93;;;17.20;38.90;;;;;;5031134;28;20407;-73
2023/08/10 06:55:53;;;;;;;14.63;5.20;;;17.20;37.90;;;;;;5019002;28;20393;-72
2023/08/10 06:58:18;;;;;;;16.13;5.60;;;17.20;37.10;;;;;;5011173;28;20408;-72
2023/08/10 07:00:47;;;;;;;13.80;5.00;;;17.30;36.90;;;;;;5012092;28;20459;-72
2023/08/10 07:03:12;;;;;;;15.40;5.13;;;17.30;36.70;;;;;;5007765;28;20492;-73
2023/08/10 07:05:38;;;;;;;14.20;4.90;;;17.20;36.90;;;;;;5028269;28;20785;-73
2023/08/10 07:08:05;;;;;;;14.63;4.25;;;17.20;36.70;;;;;;5021776;28;20404;-73
2023/08/10 07:10:31;;;;;;;17.40;4.82;;;17.20;36.50;;;;;;5041280;28;20399;-74
2023/08/10 07:12:56;;;;;;;13.43;4.57;;;17.30;35.00;;;;;;5020157;28;20458;-72
2023/08/10 07:15:22;;;;;;;13.27;4.93;;;17.20;35.10;;;;;;5014155;28;20474;-72
2023/08/10 07:17:48;;;;;;;10.13;4.22;;;17.10;35.40;;;;;;5021661;28;20473;-72
2023/08/10 07:20:13;;;;;;;15.05;5.18;;;17.20;35.70;;;;;;5013010;28;20418;-74
2023/08/10 07:22:45;;;;;;;14.93;4.97;;;17.40;35.90;;;;;;5010030;28;20412;-74
2023/08/10 07:25:11;;;;;;;9.10;4.60;;;17.40;35.70;;;;;;5012070;28;20460;-73
2023/08/10 07:27:36;;;;;;;11.38;5.53;;;17.40;34.60;;;;;;5011797;28;20539;-72
2023/08/10 07:30:03;;;;;;;9.15;4.57;;;17.40;33.70;;;;;;5011968;28;20439;-73
2023/08/10 07:32:29;;;;;;;9.07;4.20;;;17.40;33.20;;;;;;4990912;28;20399;-73
2023/08/10 07:34:54;;;;;;;12.43;4.77;;;17.50;32.90;;;;;;4992300;28;20894;-74
2023/08/10 07:37:20;;;;;;;14.57;4.20;;;17.60;32.80;;;;;;5006989;28;20452;-73
2023/08/10 07:39:47;;;;;;;13.63;4.30;;;17.60;33.00;;;;;;5027161;28;20420;-72
2023/08/10 07:42:13;;;;;;;11.15;3.65;;;17.70;33.80;;;;;;5030618;28;20385;-71
2023/08/10 07:44:39;;;;;;;13.75;3.70;;;17.90;33.40;;;;;;5021879;28;20447;-73
2023/08/10 07:47:04;;;;;;;9.10;3.88;;;17.90;32.90;;;;;;5021028;28;20410;-74
2023/08/10 07:49:31;;;;;;;15.75;5.13;;;17.80;32.60;;;;;;5006941;28;20394;-74
2023/08/10 07:51:57;;;;;;;8.20;3.30;;;17.80;32.70;;;;;;5017623;28;20406;-73
2023/08/10 07:54:23;;;;;;;7.82;2.80;;;18.00;31.10;;;;;;5021006;28;20412;-73
2023/08/10 07:56:49;;;;;;;9.27;3.20;;;18.20;30.00;;;;;;5020769;28;20393;-72
2023/08/10 07:59:16;;;;;;;8.40;3.40;;;18.30;27.90;;;;;;5010087;28;20771;-73
2023/08/10 08:01:42;;;;;;;9.75;3.10;;;18.40;28.40;;;;;;5001310;28;20390;-72
2023/08/10 08:04:08;;;;;;;9.57;3.65;;;18.50;27.00;;;;;;5019314;28;20742;-73
2023/08/10 08:06:35;;;;;;;13.35;3.10;;;18.40;26.00;;;;;;5020678;28;20389;-74
2023/08/10 08:09:03;;;;;;;11.43;3.10;;;18.30;26.40;;;;;;5024334;28;20395;-72
2023/08/10 08:11:28;;;;;;;6.13;2.92;;;18.60;25.40;;;;;;5010150;28;20408;-74
2023/08/10 08:13:54;;;;;;;6.50;3.33;;;18.80;25.80;;;;;;5031077;28;20391;-73
2023/08/10 08:16:20;;;;;;;6.37;3.30;;;18.80;24.20;;;;;;5041162;28;20519;-71
2023/08/10 08:18:52;;;;;;;8.10;2.90;;;18.70;24.10;;;;;;5037746;28;20411;-74
2023/08/10 08:21:20;;;;;;;9.13;2.95;;;18.70;22.90;;;;;;5019194;28;20735;-73
2023/08/10 08:23:47;;;;;;;5.50;2.80;;;18.70;22.90;;;;;;5017654;28;20493;-73
2023/08/10 08:26:14;;;;;;;9.50;3.47;;;18.60;23.30;;;;;;5016075;28;20389;-74
2023/08/10 08:28:40;;;;;;;6.17;3.33;;;18.60;24.30;;;;;;5008015;28;20413;-73
2023/08/10 08:31:06;;;;;;;5.53;2.80;;;18.80;23.90;;;;;;4995108;28;20418;-73
2023/08/10 08:33:33;;;;;;;9.45;2.38;;;19.20;22.60;;;;;;5000032;28;20448;-73
2023/08/10 08:35:59;;;;;;;9.95;3.10;;;19.20;21.60;;;;;;4998786;28;20489;-76
2023/08/10 08:38:25;;;;;;;7.80;2.97;;;19.20;21.80;;;;;;4997957;28;20474;-76
2023/08/10 08:40:51;;;;;;;9.88;2.95;;;19.30;22.20;;;;;;4995836;28;20799;-76
2023/08/10 08:43:17;;;;;;;8.57;3.05;;;19.30;21.40;;;;;;4992994;28;20387;-76
2023/08/10 08:45:44;;;;;;;6.90;2.72;;;19.40;21.10;;;;;;4995845;28;20386;-75
2023/08/10 08:48:14;;;;;;;8.70;3.10;;;19.50;20.70;;;;;;4992694;28;20464;-76
2023/08/10 08:50:40;;;;;;;10.35;3.20;;;19.60;20.60;;;;;;4992819;28;20730;-76
2023/08/10 08:53:12;;;;;;;9.05;3.28;;;19.70;19.80;;;;;;4992629;28;20402;-76
2023/08/10 08:55:38;;;;;;;7.40;3.00;;;19.70;19.10;;;;;;4994643;28;20421;-76
2023/08/10 08:58:04;;;;;;;11.05;2.95;;;19.80;19.30;;;;;;4993859;28;20618;-77
2023/08/10 09:00:31;;;;;;;6.57;2.63;;;19.90;19.70;;;;;;4995411;28;20476;-77
2023/08/10 09:02:57;;;;;;;9.70;3.20;;;19.90;19.50;;;;;;4998607;28;20379;-76
2023/08/10 09:05:22;;;;;;;9.20;3.00;;;20.00;19.10;;;;;;4998461;28;20387;-77
2023/08/10 09:07:49;;;;;;;15.33;7.67;;;20.00;19.10;;;;;;4998578;28;20824;-75
2023/08/10 09:10:15;;;;;;;20.98;10.07;;;20.00;19.30;;;;;;4997047;28;20394;-75
2023/08/10 09:12:41;;;;;;;15.00;7.03;;;19.90;19.80;;;;;;4991758;28;20894;-76
2023/08/10 09:15:09;;;;;;;15.15;7.70;;;20.20;19.70;;;;;;4992203;28;20691;-77
2023/08/10 09:17:36;;;;;;;28.23;13.40;;;20.10;19.40;;;;;;4990364;28;20879;-76
2023/08/10 09:20:05;;;;;;;31.20;16.52;;;20.20;19.80;;;;;;4992036;28;20402;-76
2023/08/10 09:22:39;;;;;;;51.72;26.27;;;20.40;19.30;;;;;;4992891;28;20405;-74
2023/08/10 09:25:06;;;;;;;21.27;8.45;;;20.30;18.80;;;;;;5013733;28;20397;-75
2023/08/10 09:27:33;;;;;;;15.45;6.05;;;20.10;19.40;;;;;;5007522;28;20406;-74
2023/08/10 09:30:05;;;;;;;23.77;11.40;;;19.90;19.70;;;;;;5011125;28;20408;-73
2023/08/10 09:32:31;;;;;;;12.82;6.40;;;20.00;20.00;;;;;;5018530;28;20887;-73
2023/08/10 09:34:56;;;;;;;12.52;6.00;;;20.10;21.70;;;;;;5014585;28;20393;-74
2023/08/10 09:37:23;;;;;;;11.10;5.70;;;20.10;20.30;;;;;;5021404;28;20722;-73
2023/08/10 09:39:59;;;;;;;10.80;4.80;;;20.20;20.00;;;;;;5029456;28;20438;-74
2023/08/10 09:42:25;;;;;;;9.68;4.90;;;20.30;20.00;;;;;;5028760;28;20387;-74
2023/08/10 09:44:52;;;;;;;13.10;5.50;;;20.20;20.40;;;;;;5010712;28;20410;-74
2023/08/10 09:47:18;;;;;;;21.00;7.73;;;20.30;20.30;;;;;;4999194;28;20395;-74
2023/08/10 09:49:57;;;;;;;17.17;6.68;;;20.50;19.70;;;;;;4989960;28;20712;-73
2023/08/10 09:52:24;;;;;;;12.50;6.18;;;20.60;20.00;;;;;;4990257;28;20727;-74
2023/08/10 09:54:51;;;;;;;12.80;5.95;;;20.60;19.10;;;;;;4990715;28;20425;-73
2023/08/10 09:57:18;;;;;;;9.18;4.40;;;20.60;19.60;;;;;;4993561;28;20397;-73
2023/08/10 09:59:45;;;;;;;14.05;4.90;;;20.70;19.60;;;;;;4997723;28;20416;-73
2023/08/10 10:02:11;;;;;;;13.90;6.38;;;21.10;20.10;;;;;;5012122;28;20401;-75
2023/08/10 10:04:38;;;;;;;10.07;4.57;;;21.10;19.50;;;;;;5013588;28;20395;-74
2023/08/10 10:07:05;;;;;;;11.15;4.60;;;20.90;19.80;;;;;;5013413;28;20388;-73
2023/08/10 10:09:33;;;;;;;14.68;7.20;;;20.80;21.20;;;;;;5013762;28;20395;-73
2023/08/10 10:12:00;;;;;;;28.35;13.02;;;20.80;20.00;;;;;;5013702;28;20388;-74
2023/08/10 10:14:27;;;;;;;32.80;17.25;;;20.70;20.10;;;;;;5009646;28;20516;-73
2023/08/10 10:16:53;;;;;;;33.05;15.10;;;20.90;19.80;;;;;;4999071;28;20760;-73
2023/08/10 10:19:22;;;;;;;30.53;11.57;;;21.00;20.10;;;;;;5013070;28;20539;-74
2023/08/10 10:21:49;;;;;;;45.17;22.30;;;21.10;19.70;;;;;;5014463;28;20396;-74
2023/08/10 10:24:18;;;;;;;45.20;20.87;;;21.20;20.00;;;;;;5014070;28;20750;-73
2023/08/10 10:27:08;;;;;;;36.33;17.98;;;21.20;19.50;;;;;;5015816;28;20813;-73
2023/08/10 10:30:01;;;;;;;22.65;11.10;;;21.30;19.90;;;;;;5017414;28;21045;-74
2023/08/10 10:32:27;;;;;;;29.73;14.80;;;21.60;20.40;;;;;;5002894;28;20445;-76
2023/08/10 10:34:54;;;;;;;31.40;13.93;;;21.70;19.10;;;;;;5018061;28;20406;-74
2023/08/10 10:37:34;;;;;;;30.63;13.52;;;21.50;19.70;;;;;;5003057;28;20394;-73
2023/08/10 10:40:21;;;;;;;49.25;18.70;;;21.40;19.50;;;;;;5003818;28;20397;-74
2023/08/10 10:43:06;;;;;;;56.07;21.60;;;21.40;20.20;;;;;;4995865;28;20388;-74
2023/08/10 10:45:40;;;;;;;55.22;23.55;;;21.50;20.10;;;;;;4997622;28;20440;-73
2023/08/10 10:48:06;;;;;;;61.25;23.45;;;21.70;18.90;;;;;;4994486;28;20399;-73
2023/08/10 10:50:32;;;;;;;67.55;28.48;;;21.70;19.20;;;;;;4995083;28;20402;-73
2023/08/10 10:53:11;;;;;;;97.68;38.00;;;21.90;19.50;;;;;;4996570;28;20390;-73
2023/08/10 10:55:41;;;;;;;79.18;32.75;;;22.20;19.20;;;;;;4994680;28;20466;-74
2023/08/10 10:58:08;;;;;;;71.63;29.70;;;22.10;18.90;;;;;;4994182;28;20402;-73
2023/08/10 11:00:36;;;;;;;68.68;29.80;;;22.20;19.60;;;;;;4994106;28;20401;-74
2023/08/10 11:03:04;;;;;;;68.67;29.57;;;22.20;19.80;;;;;;4992659;28;20386;-74
2023/08/10 11:05:29;;;;;;;71.13;29.08;;;22.30;20.10;;;;;;4992371;28;20399;-73
2023/08/10 11:07:56;;;;;;;57.47;24.90;;;22.40;19.40;;;;;;4993667;28;20906;-74
2023/08/10 11:10:21;;;;;;;60.90;25.80;;;22.40;19.10;;;;;;4994003;28;20394;-73
2023/08/10 11:12:48;;;;;;;52.40;23.33;;;22.40;19.20;;;;;;4993796;28;20389;-71
2023/08/10 11:15:16;;;;;;;48.47;20.85;;;22.30;18.70;;;;;;4994029;28;20390;-74
2023/08/10 11:17:47;;;;;;;47.03;20.00;;;22.20;19.50;;;;;;4993430;28;20445;-73
2023/08/10 11:20:17;;;;;;;39.58;17.50;;;22.20;19.50;;;;;;4993735;28;20453;-72
2023/08/10 11:22:44;;;;;;;46.72;20.00;;;22.20;19.80;;;;;;4993740;28;20394;-72
2023/08/10 11:25:12;;;;;;;51.53;20.67;;;22.20;18.90;;;;;;4993654;28;20387;-73
2023/08/10 11:27:45;;;;;;;49.88;21.15;;;22.20;19.20;;;;;;4993611;28;20903;-71
2023/08/10 11:30:14;;;;;;;49.97;20.60;;;22.30;19.70;;;;;;4994398;28;20473;-72
2023/08/10 11:32:41;;;;;;;51.88;20.30;;;22.50;19.90;;;;;;4993308;28;20729;-72
2023/08/10 11:35:09;;;;;;;36.10;17.20;;;22.70;19.90;;;;;;4993360;28;20390;-72
2023/08/10 11:37:36;;;;;;;40.20;17.63;;;22.90;19.30;;;;;;4993408;28;20391;-73
2023/08/10 11:40:21;;;;;;;42.38;18.65;;;23.00;18.70;;;;;;4993334;28;20422;-71
2023/08/10 11:42:49;;;;;;;42.53;17.77;;;23.40;19.20;;;;;;4991928;28;20390;-72
2023/08/10 11:45:23;;;;;;;40.83;16.42;;;23.60;17.70;;;;;;4993532;28;20784;-74
2023/08/10 11:47:51;;;;;;;43.57;18.70;;;23.50;17.80;;;;;;4993545;28;20387;-73
2023/08/10 11:50:18;;;;;;;46.47;19.02;;;23.30;18.10;;;;;;4993055;28;20394;-71
2023/08/10 11:52:44;;;;;;;47.58;19.83;;;23.00;18.20;;;;;;4993022;28;20522;-73
2023/08/10 11:55:16;;;;;;;38.72;17.02;;;23.00;18.80;;;;;;4993322;28;20878;-73
2023/08/10 11:57:52;;;;;;;36.65;16.00;;;23.30;18.00;;;;;;4993298;28;20382;-73
2023/08/10 12:00:26;;;;;;;35.50;13.98;;;23.40;19.20;;;;;;4993134;28;20383;-73
2023/08/10 12:03:11;;;;;;;16.02;8.35;;;23.70;19.40;;;;;;4992846;28;20756;-73
2023/08/10 12:05:46;;;;;;;17.92;8.07;;;23.80;17.80;;;;;;4992875;28;20383;-73
2023/08/10 12:08:15;;;;;;;24.58;9.82;;;23.30;18.50;;;;;;4993253;28;20724;-73
2023/08/10 12:10:51;;;;;;;23.98;10.05;;;23.10;18.60;;;;;;4992718;28;20391;-73
2023/08/10 12:13:18;;;;;;;19.23;8.23;;;23.20;19.00;;;;;;4992594;28;20394;-73
2023/08/10 12:15:49;;;;;;;18.25;8.07;;;23.20;18.30;;;;;;4992272;28;20895;-72
2023/08/10 12:18:16;;;;;;;16.58;7.65;;;23.30;18.20;;;;;;4991349;28;20432;-72
2023/08/10 12:20:43;;;;;;;19.92;8.77;;;23.30;18.30;;;;;;4992131;28;20401;-73
2023/08/10 12:23:09;;;;;;;20.33;8.83;;;23.20;17.70;;;;;;4992110;28;20386;-73
2023/08/10 12:25:35;;;;;;;22.45;8.38;;;23.30;17.50;;;;;;4992698;28;20883;-72
2023/08/10 12:28:01;;;;;;;21.33;8.43;;;23.30;17.70;;;;;;4992447;28;20393;-71
2023/08/10 12:30:26;;;;;;;21.30;9.40;;;23.40;17.90;;;;;;4992508;28;20390;-74
2023/08/10 12:32:52;;;;;;;20.17;8.63;;;23.50;17.00;;;;;;4992541;28;20481;-73
2023/08/10 12:35:18;;;;;;;23.73;9.80;;;23.70;17.00;;;;;;4992786;28;20960;-73
2023/08/10 12:37:46;;;;;;;20.10;9.00;;;24.00;16.90;;;;;;4992344;28;20906;-73